createdAt,value
2022-10-29T00:00:19.519Z,101701.91
2022-10-29T00:03:47.780Z,101705.34
2022-10-29T00:11:07.282Z,101715.37
2022-10-29T00:14:12.976Z,101722.75
2022-10-29T00:17:15.979Z,101731.34
2022-10-29T00:20:28.328Z,101723.19
2022-10-29T00:23:53.054Z,101715.78
2022-10-29T00:27:17.082Z,101718.03
2022-10-29T00:30:40.941Z,101720.69
2022-10-29T00:34:04.883Z,101724.97
2022-10-29T00:37:47.316Z,101722.88
2022-10-29T00:41:17.261Z,101731.44
2022-10-29T00:44:47.487Z,101734.66
2022-10-29T00:47:53.824Z,101735.34
2022-10-29T00:51:07.021Z,101731.13
2022-10-29T00:54:15.305Z,101734.34
2022-10-29T00:57:42.049Z,101727.22
2022-10-29T01:01:26.873Z,101725.78
2022-10-29T01:04:35.614Z,101721.50
2022-10-29T01:07:42.955Z,101715.06
2022-10-29T01:11:23.873Z,101708.25
2022-10-29T01:14:53.553Z,101711.94
2022-10-29T01:18:55.745Z,101705.81
2022-10-29T01:22:48.098Z,101693.84
2022-10-29T01:27:06.539Z,101687.87
2022-10-29T01:30:30.172Z,101682.38
2022-10-29T01:34:20.743Z,101676.97
2022-10-29T01:38:19.457Z,101671.09
2022-10-29T01:41:37.346Z,101675.53
2022-10-29T01:45:11.141Z,101665.22
2022-10-29T01:49:03.206Z,101659.09
2022-10-29T01:52:15.590Z,101664.37
2022-10-29T01:55:22.099Z,101655.91
2022-10-29T01:59:23.007Z,101658.88
2022-10-29T02:03:43.148Z,101661.75
2022-10-29T02:07:31.943Z,101660.87
2022-10-29T02:11:36.447Z,101651.44
2022-10-29T02:15:18.349Z,101640.81
2022-10-29T02:18:49.808Z,101642.97
2022-10-29T02:22:13.371Z,101643.06
2022-10-29T02:25:18.170Z,101649.84
2022-10-29T02:28:43.250Z,101654.28
2022-10-29T02:32:08.368Z,101646.91
2022-10-29T02:35:13.806Z,101653.53
2022-10-29T02:38:22.458Z,101657.19
2022-10-29T02:41:34.437Z,101651.59
2022-10-29T02:44:42.604Z,101661.13
2022-10-29T02:48:10.177Z,101655.53
2022-10-29T02:51:18.329Z,101655.91
2022-10-29T02:59:30.218Z,101650.16
2022-10-29T03:02:37.790Z,101645.22
2022-10-29T03:05:46.473Z,101642.50
2022-10-29T03:09:01.697Z,101644.34
2022-10-29T03:12:26.772Z,101643.13
2022-10-29T03:16:13.947Z,101642.50
2022-10-29T03:19:52.503Z,101637.31
2022-10-29T03:22:59.958Z,101645.47
2022-10-29T03:26:07.882Z,101640.16
2022-10-29T03:29:15.526Z,101644.59
2022-10-29T03:32:43.951Z,101645.75
2022-10-29T03:36:30.115Z,101647.50
2022-10-29T03:39:55.440Z,101647.94
2022-10-29T03:43:40.144Z,101638.50
2022-10-29T03:46:46.180Z,101634.41
2022-10-29T03:50:04.016Z,101633.19
2022-10-29T03:53:32.220Z,101631.28
2022-10-29T03:57:10.044Z,101635.44
2022-10-29T04:00:36.851Z,101633.59
2022-10-29T04:03:44.450Z,101634.63
2022-10-29T04:15:47.839Z,101640.28
2022-10-29T04:19:00.651Z,101643.59
2022-10-29T04:29:50.732Z,101649.34
2022-10-29T04:33:34.459Z,101641.09
2022-10-29T04:36:40.931Z,101638.88
2022-10-29T04:39:55.804Z,101633.34
2022-10-29T04:43:05.209Z,101636.44
2022-10-29T04:46:29.736Z,101640.72
2022-10-29T04:49:52.412Z,101648.81
2022-10-29T04:53:19.919Z,101640.88
2022-10-29T04:56:24.656Z,101643.25
2022-10-29T04:59:31.480Z,101637.97
2022-10-29T05:03:00.206Z,101626.53
2022-10-29T05:06:25.483Z,101628.16
2022-10-29T05:09:48.252Z,101636.09
2022-10-29T05:13:12.645Z,101646.28
2022-10-29T05:16:19.272Z,101646.59
2022-10-29T05:19:45.555Z,101643.66
2022-10-29T05:22:49.248Z,101644.72
2022-10-29T05:26:34.975Z,101645.34
2022-10-29T05:29:41.217Z,101649.31
2022-10-29T05:33:09.510Z,101642.97
2022-10-29T05:36:32.821Z,101641.91
2022-10-29T05:40:18.871Z,101635.38
2022-10-29T05:43:23.725Z,101649.31
2022-10-29T05:46:55.562Z,101642.09
2022-10-29T05:50:37.961Z,101635.38
2022-10-29T05:54:11.039Z,101645.25
2022-10-29T05:57:22.330Z,101647.88
2022-10-29T06:00:28.752Z,101652.00
2022-10-29T06:03:32.429Z,101656.44
2022-10-29T06:06:43.639Z,101647.97
2022-10-29T06:10:16.146Z,101641.78
2022-10-29T06:13:41.640Z,101640.47
2022-10-29T06:17:18.498Z,101643.72
2022-10-29T06:20:44.033Z,101635.09
2022-10-29T06:23:54.296Z,101633.31
2022-10-29T06:27:18.891Z,101634.56
2022-10-29T06:30:23.557Z,101640.22
2022-10-29T06:33:29.860Z,101653.78
2022-10-29T06:37:29.784Z,101660.13
2022-10-29T06:40:37.060Z,101650.94
2022-10-29T06:44:22.669Z,101651.78
2022-10-29T06:47:47.527Z,101660.47
2022-10-29T06:51:33.448Z,101662.34
2022-10-29T06:55:18.511Z,101668.41
2022-10-29T06:58:49.503Z,101657.53
2022-10-29T07:02:29.742Z,101672.62
2022-10-29T07:05:37.122Z,101669.44
2022-10-29T07:09:13.812Z,101669.66
2022-10-29T07:12:58.156Z,101652.97
2022-10-29T07:16:04.074Z,101652.56
2022-10-29T07:19:10.240Z,101653.84
2022-10-29T07:22:35.210Z,101646.91
2022-10-29T07:26:19.538Z,101653.38
2022-10-29T07:33:33.581Z,101667.25
2022-10-29T07:41:00.121Z,101681.59
2022-10-29T07:44:46.965Z,101691.59
2022-10-29T07:48:14.314Z,101689.16
2022-10-29T07:51:53.353Z,101683.44
2022-10-29T07:55:01.638Z,101676.00
2022-10-29T07:59:10.728Z,101668.22
2022-10-29T08:02:55.320Z,101666.19
2022-10-29T08:06:21.823Z,101663.84
2022-10-29T08:09:44.537Z,101655.03
2022-10-29T08:13:11.236Z,101669.94
2022-10-29T08:16:17.504Z,101663.50
2022-10-29T08:19:30.710Z,101664.37
2022-10-29T08:22:35.129Z,101659.94
2022-10-29T08:26:05.061Z,101659.09
2022-10-29T08:29:28.503Z,101671.91
2022-10-29T08:32:34.269Z,101666.00
2022-10-29T08:35:42.223Z,101659.63
2022-10-29T08:38:48.611Z,101664.88
2022-10-29T08:42:41.788Z,101669.00
2022-10-29T08:45:49.606Z,101681.37
2022-10-29T08:49:00.514Z,101675.56
2022-10-29T08:52:10.279Z,101675.84
2022-10-29T08:55:30.955Z,101688.28
2022-10-29T08:58:45.752Z,101679.19
2022-10-29T09:01:53.921Z,101668.50
2022-10-29T09:05:00.145Z,101659.81
2022-10-29T09:08:44.479Z,101655.06
2022-10-29T09:12:50.519Z,101659.91
2022-10-29T09:16:52.483Z,101660.09
2022-10-29T09:20:41.048Z,101652.16
2022-10-29T09:24:19.440Z,101661.25
2022-10-29T09:27:45.425Z,101659.88
2022-10-29T09:31:17.384Z,101655.19
2022-10-29T09:34:40.064Z,101652.66
2022-10-29T09:37:59.103Z,101658.91
2022-10-29T09:41:27.408Z,101654.78
2022-10-29T09:44:57.363Z,101654.72
2022-10-29T09:48:20.713Z,101649.56
2022-10-29T09:51:52.753Z,101659.09
2022-10-29T09:55:05.611Z,101657.72
2022-10-29T09:58:25.092Z,101651.53
2022-10-29T10:01:29.150Z,101641.38
2022-10-29T10:04:57.232Z,101629.56
2022-10-29T10:08:07.868Z,101626.53
2022-10-29T10:11:21.997Z,101635.69
2022-10-29T10:14:27.896Z,101631.97
2022-10-29T10:17:56.030Z,101626.63
2022-10-29T10:21:10.906Z,101634.03
2022-10-29T10:24:41.336Z,101624.00
2022-10-29T10:27:44.242Z,101624.94
2022-10-29T10:31:14.751Z,101630.94
2022-10-29T10:34:20.386Z,101620.66
2022-10-29T10:37:33.557Z,101609.69
2022-10-29T10:41:09.211Z,101604.16
2022-10-29T10:44:22.158Z,101611.88
2022-10-29T10:47:34.212Z,101611.88
2022-10-29T10:51:26.338Z,101610.28
2022-10-29T10:54:37.644Z,101607.78
2022-10-29T10:58:19.338Z,101595.59
2022-10-29T11:01:31.664Z,101600.59
2022-10-29T11:04:42.419Z,101601.44
2022-10-29T11:08:05.578Z,101598.69
2022-10-29T11:11:20.231Z,101587.91
2022-10-29T11:14:43.357Z,101590.75
2022-10-29T11:17:56.504Z,101590.19
2022-10-29T11:21:56.337Z,101585.91
2022-10-29T11:25:36.681Z,101572.66
2022-10-29T11:29:12.304Z,101579.28
2022-10-29T11:36:27.628Z,101574.88
2022-10-29T11:39:47.659Z,101566.31
2022-10-29T11:42:56.579Z,101568.09
2022-10-29T11:46:59.240Z,101559.66
2022-10-29T11:50:24.474Z,101556.81
2022-10-29T11:53:48.412Z,101546.38
2022-10-29T11:57:41.290Z,101543.19
2022-10-29T12:01:02.074Z,101546.56
2022-10-29T12:08:54.470Z,101560.06
2022-10-29T12:13:03.800Z,101550.38
2022-10-29T12:17:35.400Z,101546.66
2022-10-29T12:21:33.658Z,101545.47
2022-10-29T12:25:18.310Z,101542.56
2022-10-29T12:29:15.522Z,101537.16
2022-10-29T12:32:57.879Z,101537.22
2022-10-29T12:36:57.486Z,101526.16
2022-10-29T12:41:04.859Z,101513.16
2022-10-29T12:45:10.622Z,101516.72
2022-10-29T12:49:19.025Z,101500.56
2022-10-29T12:53:00.011Z,101487.03
2022-10-29T12:56:26.226Z,101499.91
2022-10-29T13:00:25.742Z,101484.69
2022-10-29T13:03:56.931Z,101483.47
2022-10-29T13:07:24.857Z,101475.75
2022-10-29T13:10:35.673Z,101486.53
2022-10-29T13:14:03.105Z,101476.38
2022-10-29T13:17:32.477Z,101482.78
2022-10-29T13:20:49.576Z,101477.66
2022-10-29T13:24:36.107Z,101485.09
2022-10-29T13:28:08.697Z,101478.66
2022-10-29T13:31:45.425Z,101476.72
2022-10-29T13:35:19.851Z,101492.47
2022-10-29T13:39:16.895Z,101486.00
2022-10-29T13:42:44.665Z,101485.16
2022-10-29T13:46:22.622Z,101482.88
2022-10-29T13:49:49.880Z,101484.41
2022-10-29T13:53:01.804Z,101484.31
2022-10-29T13:56:10.382Z,101477.84
2022-10-29T13:59:40.483Z,101481.00
2022-10-29T14:03:32.978Z,101475.25
2022-10-29T14:07:00.278Z,101467.13
2022-10-29T14:10:31.754Z,101465.41
2022-10-29T14:14:02.691Z,101466.91
2022-10-29T14:17:26.920Z,101461.34
2022-10-29T14:24:10.853Z,101457.19
2022-10-29T14:27:18.780Z,101448.91
2022-10-29T14:30:45.318Z,101452.22
2022-10-29T14:38:11.350Z,101481.69
2022-10-29T14:41:52.823Z,101470.50
2022-10-29T14:46:51.636Z,101466.22
2022-10-29T14:49:31.094Z,101466.63
2022-10-29T14:53:41.033Z,101466.91
2022-10-29T14:56:57.742Z,101463.78
2022-10-29T15:01:00.495Z,101451.03
2022-10-29T15:04:59.754Z,101463.81
2022-10-29T15:08:41.777Z,101462.75
2022-10-29T15:12:00.950Z,101465.50
2022-10-29T15:16:19.289Z,101471.56
2022-10-29T15:19:52.665Z,101468.75
2022-10-29T15:23:41.613Z,101463.22
2022-10-29T15:26:50.998Z,101461.28
2022-10-29T15:30:04.737Z,101448.34
2022-10-29T15:33:17.029Z,101442.56
2022-10-29T15:37:34.366Z,101437.69
2022-10-29T15:41:09.934Z,101420.69
2022-10-29T15:44:37.298Z,101426.50
2022-10-29T15:48:14.055Z,101421.62
2022-10-29T15:51:18.349Z,101429.75
2022-10-29T15:54:49.116Z,101438.16
2022-10-29T15:57:54.738Z,101444.44
2022-10-29T16:01:25.667Z,101431.81
2022-10-29T16:05:17.933Z,101453.97
2022-10-29T16:08:49.908Z,101451.44
2022-10-29T16:11:53.355Z,101459.44
2022-10-29T16:15:22.289Z,101467.50
2022-10-29T16:19:08.391Z,101473.16
2022-10-29T16:22:42.614Z,101456.31
2022-10-29T16:26:06.255Z,101454.72
2022-10-29T16:29:30.376Z,101442.69
2022-10-29T16:33:19.716Z,101443.41
2022-10-29T16:36:24.604Z,101441.44
2022-10-29T16:39:48.010Z,101449.03
2022-10-29T16:43:16.585Z,101442.38
2022-10-29T16:46:43.592Z,101449.03
2022-10-29T16:50:34.402Z,101435.78
2022-10-29T16:53:58.953Z,101433.00
2022-10-29T16:57:27.482Z,101431.53
2022-10-29T17:00:33.195Z,101435.06
2022-10-29T17:03:58.414Z,101431.28
2022-10-29T17:07:30.385Z,101428.72
2022-10-29T17:11:05.288Z,101434.34
2022-10-29T17:15:11.725Z,101431.16
2022-10-29T17:18:40.232Z,101432.06
2022-10-29T17:22:24.737Z,101416.00
2022-10-29T17:26:04.907Z,101426.19
2022-10-29T17:30:11.671Z,101430.47
2022-10-29T17:33:43.533Z,101437.88
2022-10-29T17:37:12.125Z,101439.12
2022-10-29T17:40:36.718Z,101422.50
2022-10-29T17:43:53.558Z,101413.00
2022-10-29T17:47:35.918Z,101414.41
2022-10-29T17:50:40.934Z,101420.53
2022-10-29T17:54:14.132Z,101422.12
2022-10-29T17:57:33.411Z,101414.25
2022-10-29T18:00:41.104Z,101418.75
2022-10-29T18:04:46.422Z,101425.16
2022-10-29T18:08:30.639Z,101434.41
2022-10-29T18:12:06.776Z,101430.94
2022-10-29T18:15:51.041Z,101427.72
2022-10-29T18:19:25.564Z,101423.44
2022-10-29T18:23:06.759Z,101415.00
2022-10-29T18:26:36.215Z,101425.62
2022-10-29T18:30:04.531Z,101431.97
2022-10-29T18:33:37.786Z,101429.59
2022-10-29T18:37:22.492Z,101426.56
2022-10-29T18:40:56.792Z,101418.00
2022-10-29T18:44:29.000Z,101417.56
2022-10-29T18:47:53.632Z,101420.91
2022-10-29T18:51:34.407Z,101419.06
2022-10-29T18:55:16.476Z,101416.75
2022-10-29T18:58:24.020Z,101417.56
2022-10-29T19:05:27.900Z,101397.78
2022-10-29T19:08:53.380Z,101397.78
2022-10-29T19:12:25.164Z,101396.88
2022-10-29T19:15:32.743Z,101379.44
2022-10-29T19:18:38.946Z,101381.88
2022-10-29T19:21:44.571Z,101380.03
2022-10-29T19:24:47.883Z,101390.03
2022-10-29T19:27:53.543Z,101388.19
2022-10-29T19:31:03.672Z,101370.88
2022-10-29T19:34:08.535Z,101382.19
2022-10-29T19:37:17.169Z,101376.78
2022-10-29T19:40:24.506Z,101371.94
2022-10-29T19:43:30.362Z,101375.31
2022-10-29T19:46:34.989Z,101371.56
2022-10-29T19:49:42.398Z,101369.31
2022-10-29T19:53:05.857Z,101381.31
2022-10-29T19:56:18.808Z,101397.25
2022-10-29T19:59:30.881Z,101384.56
2022-10-29T20:02:34.139Z,101376.47
2022-10-29T20:05:41.781Z,101375.81
2022-10-29T20:08:45.606Z,101360.78
2022-10-29T20:11:50.202Z,101368.16
2022-10-29T20:14:53.690Z,101357.56
2022-10-29T20:18:00.087Z,101363.91
2022-10-29T20:24:14.668Z,101360.31
2022-10-29T20:27:25.976Z,101362.84
2022-10-29T20:30:30.974Z,101365.75
2022-10-29T20:33:34.222Z,101367.22
2022-10-29T20:36:40.646Z,101366.41
2022-10-29T20:39:46.240Z,101362.72
2022-10-29T20:43:11.771Z,101364.94
2022-10-29T20:46:23.968Z,101372.78
2022-10-29T20:49:28.193Z,101371.53
2022-10-29T20:52:33.399Z,101370.13
2022-10-29T20:55:57.287Z,101372.34
2022-10-29T20:59:02.725Z,101380.75
2022-10-29T21:02:06.675Z,101369.91
2022-10-29T21:05:32.737Z,101379.59
2022-10-29T21:08:41.401Z,101368.66
2022-10-29T21:11:44.055Z,101364.59
2022-10-29T21:14:49.193Z,101375.22
2022-10-29T21:17:55.517Z,101371.63
2022-10-29T21:21:03.313Z,101372.28
2022-10-29T21:24:08.331Z,101364.47
2022-10-29T21:27:14.454Z,101368.50
2022-10-29T21:30:17.814Z,101375.66
2022-10-29T21:33:21.238Z,101382.47
2022-10-29T21:36:26.160Z,101372.44
2022-10-29T21:39:30.766Z,101370.91
2022-10-29T21:42:35.762Z,101374.12
2022-10-29T21:45:43.447Z,101373.91
2022-10-29T21:48:47.670Z,101373.69
2022-10-29T21:51:52.487Z,101376.34
2022-10-29T21:54:55.393Z,101375.31
2022-10-29T21:57:59.196Z,101378.75
2022-10-29T22:01:07.969Z,101371.12
2022-10-29T22:04:11.108Z,101371.25
2022-10-29T22:07:14.962Z,101372.44
2022-10-29T22:10:18.853Z,101379.44
2022-10-29T22:13:24.530Z,101363.19
2022-10-29T22:16:28.219Z,101353.69
2022-10-29T22:19:30.825Z,101359.50
2022-10-29T22:22:33.705Z,101360.78
2022-10-29T22:25:36.421Z,101357.94
2022-10-29T22:28:44.117Z,101367.69
2022-10-29T22:31:46.912Z,101362.03
2022-10-29T22:34:52.309Z,101366.00
2022-10-29T22:41:06.332Z,101361.81
2022-10-29T22:44:10.869Z,101356.25
2022-10-29T22:47:13.958Z,101342.75
2022-10-29T22:50:19.373Z,101349.59
2022-10-29T22:53:24.668Z,101343.50
2022-10-29T22:56:38.436Z,101337.72
2022-10-29T22:59:45.322Z,101337.63
2022-10-29T23:02:47.777Z,101343.75
2022-10-29T23:05:58.260Z,101341.41
2022-10-29T23:09:01.863Z,101326.09
2022-10-29T23:12:05.299Z,101317.75
2022-10-29T23:15:09.805Z,101317.97
2022-10-29T23:18:14.585Z,101321.00
2022-10-29T23:21:22.580Z,101311.75
2022-10-29T23:24:28.280Z,101321.22
2022-10-29T23:27:31.903Z,101321.97
2022-10-29T23:30:37.481Z,101324.16
2022-10-29T23:33:46.350Z,101321.28
2022-10-29T23:36:50.015Z,101313.66
2022-10-29T23:39:52.978Z,101322.09
2022-10-29T23:42:59.804Z,101314.47
2022-10-29T23:46:06.127Z,101307.44
2022-10-29T23:49:46.559Z,101304.00
2022-10-29T23:52:48.910Z,101307.56
2022-10-29T23:55:52.626Z,101305.16
2022-10-29T23:58:57.675Z,101303.41
